sensor_id;sensor_type;location;lat;lon;timestamp;P1;durP1;ratioP1;P2;durP2;ratioP2
31095;SDS011;17749;51.962;8.560;2023-03-01T06:01:45;16.83;;;9.07;;
31095;SDS011;17749;51.962;8.560;2023-03-01T06:04:12;14.18;;;7.47;;
31095;SDS011;17749;51.962;8.560;2023-03-01T06:06:39;17.90;;;8.57;;
31095;SDS011;17749;51.962;8.560;2023-03-01T06:09:06;12.82;;;7.15;;
31095;SDS011;17749;51.962;8.560;2023-03-01T06:11:36;11.32;;;7.72;;
31095;SDS011;17749;51.962;8.560;2023-03-01T06:14:03;14.75;;;7.72;;
31095;SDS011;17749;51.962;8.560;2023-03-01T06:16:32;15.65;;;7.72;;
31095;SDS011;17749;51.962;8.560;2023-03-01T06:18:59;16.45;;;8.10;;
31095;SDS011;17749;51.962;8.560;2023-03-01T06:21:26;11.98;;;6.97;;
31095;SDS011;17749;51.962;8.560;2023-03-01T06:23:53;14.15;;;6.53;;
31095;SDS011;17749;51.962;8.560;2023-03-01T06:26:20;14.77;;;7.40;;
31095;SDS011;17749;51.962;8.560;2023-03-01T06:28:47;12.95;;;6.72;;
31095;SDS011;17749;51.962;8.560;2023-03-01T06:31:14;12.02;;;6.70;;
31095;SDS011;17749;51.962;8.560;2023-03-01T06:33:41;11.95;;;7.07;;
31095;SDS011;17749;51.962;8.560;2023-03-01T06:36:08;10.98;;;6.72;;
31095;SDS011;17749;51.962;8.560;2023-03-01T06:38:36;11.35;;;6.95;;
31095;SDS011;17749;51.962;8.560;2023-03-01T06:41:03;16.10;;;7.32;;
31095;SDS011;17749;51.962;8.560;2023-03-01T06:43:30;16.58;;;8.68;;
31095;SDS011;17749;51.962;8.560;2023-03-01T06:45:57;15.77;;;7.50;;
31095;SDS011;17749;51.962;8.560;2023-03-01T06:48:24;15.07;;;6.97;;
31095;SDS011;17749;51.962;8.560;2023-03-01T06:50:51;14.93;;;7.32;;
31095;SDS011;17749;51.962;8.560;2023-03-01T06:53:17;14.57;;;8.00;;
31095;SDS011;17749;51.962;8.560;2023-03-01T06:55:44;14.38;;;8.05;;
31095;SDS011;17749;51.962;8.560;2023-03-01T06:58:11;16.98;;;9.45;;
31095;SDS011;17749;51.962;8.560;2023-03-01T07:00:38;20.23;;;11.48;;
31095;SDS011;17749;51.962;8.560;2023-03-01T07:03:07;20.85;;;10.27;;
31095;SDS011;17749;51.962;8.560;2023-03-01T07:05:35;18.30;;;11.18;;
31095;SDS011;17749;51.962;8.560;2023-03-01T07:08:02;16.45;;;9.77;;
31095;SDS011;17749;51.962;8.560;2023-03-01T07:10:29;18.23;;;9.13;;
31095;SDS011;17749;51.962;8.560;2023-03-01T07:12:56;16.88;;;10.65;;
31095;SDS011;17749;51.962;8.560;2023-03-01T07:15:24;18.35;;;9.30;;
31095;SDS011;17749;51.962;8.560;2023-03-01T07:17:52;18.58;;;10.98;;
31095;SDS011;17749;51.962;8.560;2023-03-01T07:20:19;19.15;;;10.90;;
31095;SDS011;17749;51.962;8.560;2023-03-01T07:22:52;22.45;;;10.60;;
31095;SDS011;17749;51.962;8.560;2023-03-01T07:25:19;23.95;;;11.85;;
31095;SDS011;17749;51.962;8.560;2023-03-01T07:27:50;18.20;;;9.85;;
31095;SDS011;17749;51.962;8.560;2023-03-01T07:30:19;14.60;;;8.23;;
31095;SDS011;17749;51.962;8.560;2023-03-01T07:32:46;14.48;;;8.95;;
31095;SDS011;17749;51.962;8.560;2023-03-01T07:35:14;18.08;;;8.35;;
31095;SDS011;17749;51.962;8.560;2023-03-01T07:37:41;14.32;;;7.90;;
31095;SDS011;17749;51.962;8.560;2023-03-01T07:40:08;15.07;;;8.07;;
31095;SDS011;17749;51.962;8.560;2023-03-01T07:42:35;17.02;;;8.73;;
31095;SDS011;17749;51.962;8.560;2023-03-01T07:45:03;11.90;;;7.25;;
31095;SDS011;17749;51.962;8.560;2023-03-01T07:47:30;14.65;;;8.13;;
31095;SDS011;17749;51.962;8.560;2023-03-01T07:50:01;12.27;;;7.47;;
31095;SDS011;17749;51.962;8.560;2023-03-01T07:52:28;15.88;;;7.78;;
31095;SDS011;17749;51.962;8.560;2023-03-01T07:54:57;14.93;;;7.95;;
31095;SDS011;17749;51.962;8.560;2023-03-01T07:57:24;14.75;;;8.98;;
31095;SDS011;17749;51.962;8.560;2023-03-01T07:59:50;14.10;;;8.70;;
31095;SDS011;17749;51.962;8.560;2023-03-01T08:02:17;15.25;;;7.63;;
31095;SDS011;17749;51.962;8.560;2023-03-01T08:04:44;15.23;;;8.88;;
31095;SDS011;17749;51.962;8.560;2023-03-01T08:07:11;17.73;;;7.82;;
31095;SDS011;17749;51.962;8.560;2023-03-01T08:09:37;15.05;;;8.40;;
31095;SDS011;17749;51.962;8.560;2023-03-01T08:12:04;13.65;;;8.02;;
31095;SDS011;17749;51.962;8.560;2023-03-01T08:14:32;14.88;;;8.45;;
31095;SDS011;17749;51.962;8.560;2023-03-01T08:16:59;14.25;;;8.63;;
31095;SDS011;17749;51.962;8.560;2023-03-01T08:19:26;20.60;;;8.75;;
31095;SDS011;17749;51.962;8.560;2023-03-01T08:21:54;14.32;;;8.98;;
31095;SDS011;17749;51.962;8.560;2023-03-01T08:24:24;15.45;;;8.52;;
31095;SDS011;17749;51.962;8.560;2023-03-01T08:26:52;13.73;;;8.07;;
31095;SDS011;17749;51.962;8.560;2023-03-01T08:29:20;13.32;;;8.05;;
31095;SDS011;17749;51.962;8.560;2023-03-01T08:31:47;16.05;;;9.25;;
31095;SDS011;17749;51.962;8.560;2023-03-01T08:34:15;13.77;;;8.25;;
31095;SDS011;17749;51.962;8.560;2023-03-01T08:36:45;17.33;;;9.00;;
31095;SDS011;17749;51.962;8.560;2023-03-01T08:39:13;14.93;;;9.10;;
31095;SDS011;17749;51.962;8.560;2023-03-01T08:41:42;21.25;;;10.02;;
31095;SDS011;17749;51.962;8.560;2023-03-01T08:44:09;16.67;;;8.82;;
31095;SDS011;17749;51.962;8.560;2023-03-01T08:46:38;15.75;;;8.73;;
31095;SDS011;17749;51.962;8.560;2023-03-01T08:49:07;17.30;;;9.73;;
31095;SDS011;17749;51.962;8.560;2023-03-01T08:51:37;14.43;;;10.40;;
31095;SDS011;17749;51.962;8.560;2023-03-01T08:54:07;18.75;;;10.80;;
31095;SDS011;17749;51.962;8.560;2023-03-01T08:56:37;15.07;;;8.90;;
31095;SDS011;17749;51.962;8.560;2023-03-01T08:59:04;16.80;;;10.23;;
31095;SDS011;17749;51.962;8.560;2023-03-01T09:01:31;17.08;;;10.05;;
31095;SDS011;17749;51.962;8.560;2023-03-01T09:03:58;18.60;;;10.18;;
31095;SDS011;17749;51.962;8.560;2023-03-01T09:06:25;25.05;;;10.80;;
31095;SDS011;17749;51.962;8.560;2023-03-01T09:08:52;17.35;;;11.27;;
31095;SDS011;17749;51.962;8.560;2023-03-01T09:11:21;20.90;;;11.10;;
31095;SDS011;17749;51.962;8.560;2023-03-01T09:13:48;17.27;;;9.95;;
31095;SDS011;17749;51.962;8.560;2023-03-01T09:16:17;17.13;;;9.05;;
31095;SDS011;17749;51.962;8.560;2023-03-01T09:18:53;15.80;;;8.88;;
31095;SDS011;17749;51.962;8.560;2023-03-01T09:21:21;23.70;;;11.65;;
31095;SDS011;17749;51.962;8.560;2023-03-01T09:24:05;19.88;;;10.27;;
31095;SDS011;17749;51.962;8.560;2023-03-01T09:26:32;15.82;;;8.80;;
31095;SDS011;17749;51.962;8.560;2023-03-01T09:28:59;13.27;;;7.80;;
31095;SDS011;17749;51.962;8.560;2023-03-01T09:31:26;15.75;;;8.65;;
31095;SDS011;17749;51.962;8.560;2023-03-01T09:33:53;16.98;;;8.55;;
31095;SDS011;17749;51.962;8.560;2023-03-01T09:36:23;14.05;;;8.48;;
31095;SDS011;17749;51.962;8.560;2023-03-01T09:38:52;14.10;;;8.05;;
31095;SDS011;17749;51.962;8.560;2023-03-01T09:46:50;17.30;;;8.50;;
31095;SDS011;17749;51.962;8.560;2023-03-01T09:49:21;15.48;;;8.25;;
31095;SDS011;17749;51.962;8.560;2023-03-01T09:51:55;13.10;;;7.55;;
31095;SDS011;17749;51.962;8.560;2023-03-01T09:54:26;20.42;;;8.38;;
31095;SDS011;17749;51.962;8.560;2023-03-01T10:08:13;16.88;;;8.27;;
31095;SDS011;17749;51.962;8.560;2023-03-01T10:10:52;11.95;;;8.15;;
31095;SDS011;17749;51.962;8.560;2023-03-01T10:13:29;14.65;;;8.23;;
31095;SDS011;17749;51.962;8.560;2023-03-01T10:16:41;13.85;;;8.43;;
31095;SDS011;17749;51.962;8.560;2023-03-01T10:19:23;18.23;;;9.32;;
31095;SDS011;17749;51.962;8.560;2023-03-01T10:21:54;13.10;;;7.65;;
31095;SDS011;17749;51.962;8.560;2023-03-01T10:24:27;14.90;;;8.02;;
31095;SDS011;17749;51.962;8.560;2023-03-01T10:27:01;15.10;;;8.15;;
31095;SDS011;17749;51.962;8.560;2023-03-01T10:30:12;13.95;;;7.90;;
31095;SDS011;17749;51.962;8.560;2023-03-01T10:32:44;15.45;;;8.57;;
31095;SDS011;17749;51.962;8.560;2023-03-01T10:35:31;17.33;;;9.02;;
31095;SDS011;17749;51.962;8.560;2023-03-01T10:38:07;28.52;;;9.45;;
31095;SDS011;17749;51.962;8.560;2023-03-01T10:40:36;13.35;;;8.82;;
31095;SDS011;17749;51.962;8.560;2023-03-01T10:43:17;15.30;;;8.60;;
31095;SDS011;17749;51.962;8.560;2023-03-01T10:45:45;18.65;;;8.98;;
31095;SDS011;17749;51.962;8.560;2023-03-01T10:51:12;13.48;;;8.15;;
31095;SDS011;17749;51.962;8.560;2023-03-01T10:53:47;15.55;;;8.95;;
31095;SDS011;17749;51.962;8.560;2023-03-01T10:56:16;9.05;;;6.30;;
31095;SDS011;17749;51.962;8.560;2023-03-01T10:58:56;11.55;;;6.10;;
31095;SDS011;17749;51.962;8.560;2023-03-01T11:01:26;9.63;;;5.78;;
31095;SDS011;17749;51.962;8.560;2023-03-01T11:06:33;12.10;;;6.65;;
31095;SDS011;17749;51.962;8.560;2023-03-01T11:09:14;11.70;;;6.60;;
31095;SDS011;17749;51.962;8.560;2023-03-01T11:11:46;9.90;;;5.45;;
31095;SDS011;17749;51.962;8.560;2023-03-01T11:14:20;12.95;;;5.85;;
31095;SDS011;17749;51.962;8.560;2023-03-01T11:17:03;11.50;;;6.25;;
31095;SDS011;17749;51.962;8.560;2023-03-01T11:19:32;10.05;;;6.07;;
31095;SDS011;17749;51.962;8.560;2023-03-01T11:22:01;18.42;;;9.32;;
31095;SDS011;17749;51.962;8.560;2023-03-01T11:24:39;11.43;;;5.45;;
31095;SDS011;17749;51.962;8.560;2023-03-01T11:27:21;9.93;;;5.40;;
31095;SDS011;17749;51.962;8.560;2023-03-01T11:29:57;9.65;;;5.00;;
31095;SDS011;17749;51.962;8.560;2023-03-01T11:33:33;10.98;;;6.15;;
31095;SDS011;17749;51.962;8.560;2023-03-01T11:35:35;7.97;;;4.80;;
31095;SDS011;17749;51.962;8.560;2023-03-01T11:40:45;12.50;;;5.63;;
31095;SDS011;17749;51.962;8.560;2023-03-01T11:51:35;11.77;;;5.90;;
31095;SDS011;17749;51.962;8.560;2023-03-01T11:54:26;14.07;;;8.32;;
31095;SDS011;17749;51.962;8.560;2023-03-01T11:57:20;11.32;;;6.43;;
31095;SDS011;17749;51.962;8.560;2023-03-01T12:16:15;9.57;;;5.65;;
31095;SDS011;17749;51.962;8.560;2023-03-01T12:24:28;8.48;;;5.60;;
31095;SDS011;17749;51.962;8.560;2023-03-01T12:27:12;11.23;;;6.05;;
31095;SDS011;17749;51.962;8.560;2023-03-01T12:32:53;9.13;;;5.55;;
31095;SDS011;17749;51.962;8.560;2023-03-01T12:35:33;9.40;;;5.43;;
31095;SDS011;17749;51.962;8.560;2023-03-01T12:38:14;8.82;;;5.47;;
31095;SDS011;17749;51.962;8.560;2023-03-01T12:41:10;16.90;;;5.68;;
31095;SDS011;17749;51.962;8.560;2023-03-01T12:46:47;10.88;;;5.38;;
31095;SDS011;17749;51.962;8.560;2023-03-01T12:49:44;10.85;;;5.55;;
31095;SDS011;17749;51.962;8.560;2023-03-01T12:52:20;11.00;;;5.75;;
31095;SDS011;17749;51.962;8.560;2023-03-01T12:54:57;10.45;;;5.82;;
31095;SDS011;17749;51.962;8.560;2023-03-01T13:08:44;9.55;;;4.80;;
31095;SDS011;17749;51.962;8.560;2023-03-01T13:11:22;8.93;;;5.35;;
31095;SDS011;17749;51.962;8.560;2023-03-01T13:13:50;11.07;;;5.28;;
31095;SDS011;17749;51.962;8.560;2023-03-01T13:19:22;9.25;;;4.68;;
31095;SDS011;17749;51.962;8.560;2023-03-01T13:21:52;9.25;;;4.78;;
31095;SDS011;17749;51.962;8.560;2023-03-01T13:24:25;9.52;;;4.63;;
31095;SDS011;17749;51.962;8.560;2023-03-01T13:29:50;7.95;;;4.43;;
31095;SDS011;17749;51.962;8.560;2023-03-01T13:32:26;6.15;;;4.30;;
31095;SDS011;17749;51.962;8.560;2023-03-01T13:37:46;5.82;;;4.00;;
31095;SDS011;17749;51.962;8.560;2023-03-01T13:42:48;6.38;;;4.10;;
31095;SDS011;17749;51.962;8.560;2023-03-01T13:45:40;7.47;;;3.75;;
31095;SDS011;17749;51.962;8.560;2023-03-01T13:50:45;7.47;;;3.65;;
31095;SDS011;17749;51.962;8.560;2023-03-01T13:53:19;10.15;;;4.25;;
31095;SDS011;17749;51.962;8.560;2023-03-01T13:55:57;7.97;;;5.18;;
31095;SDS011;17749;51.962;8.560;2023-03-01T13:58:29;8.27;;;4.15;;
31095;SDS011;17749;51.962;8.560;2023-03-01T14:01:03;9.65;;;4.20;;
31095;SDS011;17749;51.962;8.560;2023-03-01T14:03:32;12.20;;;4.75;;
31095;SDS011;17749;51.962;8.560;2023-03-01T14:06:13;8.48;;;4.90;;
31095;SDS011;17749;51.962;8.560;2023-03-01T14:19:59;8.15;;;3.88;;
31095;SDS011;17749;51.962;8.560;2023-03-01T14:22:32;6.88;;;3.75;;
31095;SDS011;17749;51.962;8.560;2023-03-01T14:25:18;7.90;;;4.60;;
31095;SDS011;17749;51.962;8.560;2023-03-01T14:28:13;5.75;;;4.20;;
31095;SDS011;17749;51.962;8.560;2023-03-01T14:30:47;8.57;;;4.30;;
31095;SDS011;17749;51.962;8.560;2023-03-01T14:33:38;6.15;;;3.22;;
31095;SDS011;17749;51.962;8.560;2023-03-01T14:36:09;5.95;;;3.20;;
31095;SDS011;17749;51.962;8.560;2023-03-01T14:38:39;7.22;;;4.05;;
31095;SDS011;17749;51.962;8.560;2023-03-01T14:41:12;8.82;;;4.32;;
31095;SDS011;17749;51.962;8.560;2023-03-01T14:43:43;6.75;;;4.25;;
31095;SDS011;17749;51.962;8.560;2023-03-01T14:46:17;9.05;;;3.65;;
31095;SDS011;17749;51.962;8.560;2023-03-01T14:48:54;9.13;;;4.18;;
31095;SDS011;17749;51.962;8.560;2023-03-01T14:51:24;8.00;;;3.58;;
31095;SDS011;17749;51.962;8.560;2023-03-01T14:53:51;7.75;;;3.92;;
31095;SDS011;17749;51.962;8.560;2023-03-01T14:56:19;5.90;;;4.05;;
31095;SDS011;17749;51.962;8.560;2023-03-01T14:58:50;7.93;;;4.03;;
31095;SDS011;17749;51.962;8.560;2023-03-01T15:01:18;6.70;;;3.63;;
31095;SDS011;17749;51.962;8.560;2023-03-01T15:03:55;9.63;;;4.47;;
31095;SDS011;17749;51.962;8.560;2023-03-01T15:06:33;5.68;;;3.60;;
31095;SDS011;17749;51.962;8.560;2023-03-01T15:09:14;6.97;;;3.70;;
31095;SDS011;17749;51.962;8.560;2023-03-01T15:11:43;5.38;;;3.58;;
31095;SDS011;17749;51.962;8.560;2023-03-01T15:14:27;5.38;;;3.30;;
31095;SDS011;17749;51.962;8.560;2023-03-01T15:20:06;5.93;;;3.72;;
31095;SDS011;17749;51.962;8.560;2023-03-01T15:22:43;5.18;;;3.28;;
31095;SDS011;17749;51.962;8.560;2023-03-01T15:25:35;7.47;;;4.15;;
31095;SDS011;17749;51.962;8.560;2023-03-01T15:28:05;8.13;;;4.05;;
31095;SDS011;17749;51.962;8.560;2023-03-01T15:30:32;6.43;;;4.07;;
31095;SDS011;17749;51.962;8.560;2023-03-01T15:33:38;6.50;;;4.20;;
31095;SDS011;17749;51.962;8.560;2023-03-01T15:36:00;7.38;;;4.38;;
31095;SDS011;17749;51.962;8.560;2023-03-01T15:38:34;9.18;;;3.85;;
31095;SDS011;17749;51.962;8.560;2023-03-01T15:41:25;8.30;;;4.30;;
31095;SDS011;17749;51.962;8.560;2023-03-01T15:44:17;8.95;;;4.47;;
31095;SDS011;17749;51.962;8.560;2023-03-01T15:47:00;8.50;;;4.57;;
31095;SDS011;17749;51.962;8.560;2023-03-01T15:52:28;8.15;;;5.40;;
31095;SDS011;17749;51.962;8.560;2023-03-01T15:55:02;10.50;;;5.13;;
31095;SDS011;17749;51.962;8.560;2023-03-01T15:57:31;9.93;;;4.72;;
31095;SDS011;17749;51.962;8.560;2023-03-01T15:59:58;7.70;;;4.72;;
31095;SDS011;17749;51.962;8.560;2023-03-01T16:02:25;5.38;;;3.72;;
31095;SDS011;17749;51.962;8.560;2023-03-01T16:04:52;6.28;;;3.67;;
31095;SDS011;17749;51.962;8.560;2023-03-01T16:07:23;7.63;;;4.32;;
31095;SDS011;17749;51.962;8.560;2023-03-01T16:09:50;8.88;;;4.97;;
31095;SDS011;17749;51.962;8.560;2023-03-01T16:12:19;9.13;;;4.68;;
31095;SDS011;17749;51.962;8.560;2023-03-01T16:14:47;9.25;;;4.00;;
31095;SDS011;17749;51.962;8.560;2023-03-01T16:17:17;6.10;;;3.83;;
31095;SDS011;17749;51.962;8.560;2023-03-01T16:19:48;8.63;;;3.97;;
31095;SDS011;17749;51.962;8.560;2023-03-01T16:22:14;6.25;;;3.70;;
31095;SDS011;17749;51.962;8.560;2023-03-01T16:24:42;5.95;;;3.45;;
31095;SDS011;17749;51.962;8.560;2023-03-01T16:27:09;9.05;;;4.15;;
31095;SDS011;17749;51.962;8.560;2023-03-01T16:29:36;6.40;;;4.03;;
31095;SDS011;17749;51.962;8.560;2023-03-01T16:32:03;6.85;;;3.78;;
31095;SDS011;17749;51.962;8.560;2023-03-01T16:34:31;8.18;;;4.40;;
31095;SDS011;17749;51.962;8.560;2023-03-01T16:36:58;9.25;;;4.10;;
31095;SDS011;17749;51.962;8.560;2023-03-01T16:39:25;9.52;;;3.97;;
31095;SDS011;17749;51.962;8.560;2023-03-01T16:41:52;10.02;;;4.28;;
31095;SDS011;17749;51.962;8.560;2023-03-01T16:44:19;13.10;;;4.15;;
31095;SDS011;17749;51.962;8.560;2023-03-01T16:46:47;6.72;;;4.28;;
31095;SDS011;17749;51.962;8.560;2023-03-01T16:49:14;5.50;;;3.85;;
31095;SDS011;17749;51.962;8.560;2023-03-01T16:51:41;8.80;;;3.75;;
31095;SDS011;17749;51.962;8.560;2023-03-01T16:54:08;6.60;;;4.07;;
31095;SDS011;17749;51.962;8.560;2023-03-01T16:56:35;9.00;;;4.30;;
31095;SDS011;17749;51.962;8.560;2023-03-01T16:59:06;7.90;;;4.05;;
31095;SDS011;17749;51.962;8.560;2023-03-01T17:01:33;7.85;;;4.30;;
31095;SDS011;17749;51.962;8.560;2023-03-01T17:04:06;6.90;;;3.67;;
31095;SDS011;17749;51.962;8.560;2023-03-01T17:06:33;6.82;;;3.70;;
31095;SDS011;17749;51.962;8.560;2023-03-01T17:09:00;10.30;;;4.65;;
31095;SDS011;17749;51.962;8.560;2023-03-01T17:11:28;8.38;;;4.50;;
31095;SDS011;17749;51.962;8.560;2023-03-01T17:13:55;6.63;;;3.60;;
31095;SDS011;17749;51.962;8.560;2023-03-01T17:16:22;12.38;;;6.03;;
31095;SDS011;17749;51.962;8.560;2023-03-01T17:18:49;10.13;;;5.60;;
31095;SDS011;17749;51.962;8.560;2023-03-01T17:21:16;11.32;;;5.68;;
31095;SDS011;17749;51.962;8.560;2023-03-01T17:23:44;10.27;;;4.00;;
31095;SDS011;17749;51.962;8.560;2023-03-01T17:26:12;8.35;;;3.88;;
31095;SDS011;17749;51.962;8.560;2023-03-01T17:28:39;9.95;;;3.95;;
31095;SDS011;17749;51.962;8.560;2023-03-01T17:31:06;7.85;;;3.97;;
31095;SDS011;17749;51.962;8.560;2023-03-01T17:33:34;11.07;;;5.63;;
31095;SDS011;17749;51.962;8.560;2023-03-01T17:36:02;11.00;;;4.70;;
31095;SDS011;17749;51.962;8.560;2023-03-01T17:38:29;8.38;;;5.30;;
31095;SDS011;17749;51.962;8.560;2023-03-01T17:40:57;9.00;;;4.15;;
31095;SDS011;17749;51.962;8.560;2023-03-01T17:43:26;8.05;;;4.20;;
31095;SDS011;17749;51.962;8.560;2023-03-01T17:45:53;7.47;;;3.90;;
31095;SDS011;17749;51.962;8.560;2023-03-01T17:48:22;7.85;;;3.80;;
31095;SDS011;17749;51.962;8.560;2023-03-01T17:50:49;8.65;;;3.75;;
31095;SDS011;17749;51.962;8.560;2023-03-01T17:53:16;8.40;;;3.92;;
31095;SDS011;17749;51.962;8.560;2023-03-01T17:55:43;8.13;;;4.47;;
31095;SDS011;17749;51.962;8.560;2023-03-01T17:58:12;7.05;;;3.70;;
31095;SDS011;17749;51.962;8.560;2023-03-01T18:00:40;7.47;;;4.00;;
31095;SDS011;17749;51.962;8.560;2023-03-01T18:03:07;7.15;;;4.07;;
31095;SDS011;17749;51.962;8.560;2023-03-01T18:05:35;7.40;;;5.03;;
31095;SDS011;17749;51.962;8.560;2023-03-01T18:08:03;8.80;;;4.53;;
31095;SDS011;17749;51.962;8.560;2023-03-01T18:10:31;8.57;;;4.43;;
31095;SDS011;17749;51.962;8.560;2023-03-01T18:13:03;8.55;;;4.32;;
31095;SDS011;17749;51.962;8.560;2023-03-01T18:15:31;9.80;;;4.35;;
31095;SDS011;17749;51.962;8.560;2023-03-01T18:17:58;6.85;;;3.90;;
31095;SDS011;17749;51.962;8.560;2023-03-01T18:20:25;9.60;;;5.40;;
31095;SDS011;17749;51.962;8.560;2023-03-01T18:22:53;9.07;;;5.20;;
31095;SDS011;17749;51.962;8.560;2023-03-01T18:25:20;9.55;;;5.40;;
31095;SDS011;17749;51.962;8.560;2023-03-01T18:27:47;7.93;;;4.53;;
31095;SDS011;17749;51.962;8.560;2023-03-01T18:30:20;6.72;;;4.18;;
31095;SDS011;17749;51.962;8.560;2023-03-01T18:32:46;9.23;;;4.28;;
31095;SDS011;17749;51.962;8.560;2023-03-01T18:35:14;7.10;;;4.22;;
31095;SDS011;17749;51.962;8.560;2023-03-01T18:37:41;8.63;;;4.45;;
31095;SDS011;17749;51.962;8.560;2023-03-01T18:40:15;9.57;;;4.25;;
31095;SDS011;17749;51.962;8.560;2023-03-01T18:42:42;11.32;;;5.72;;
31095;SDS011;17749;51.962;8.560;2023-03-01T18:45:09;9.65;;;5.88;;
31095;SDS011;17749;51.962;8.560;2023-03-01T18:47:37;10.02;;;6.05;;
31095;SDS011;17749;51.962;8.560;2023-03-01T18:50:04;10.20;;;5.47;;
31095;SDS011;17749;51.962;8.560;2023-03-01T18:52:31;8.00;;;4.78;;
31095;SDS011;17749;51.962;8.560;2023-03-01T18:54:58;9.77;;;4.60;;
31095;SDS011;17749;51.962;8.560;2023-03-01T18:57:25;10.40;;;4.43;;
31095;SDS011;17749;51.962;8.560;2023-03-01T18:59:52;8.27;;;4.20;;
31095;SDS011;17749;51.962;8.560;2023-03-01T19:02:19;8.85;;;4.93;;
31095;SDS011;17749;51.962;8.560;2023-03-01T19:04:48;9.90;;;4.70;;
31095;SDS011;17749;51.962;8.560;2023-03-01T19:07:16;7.28;;;4.25;;
31095;SDS011;17749;51.962;8.560;2023-03-01T19:09:42;11.45;;;5.30;;
31095;SDS011;17749;51.962;8.560;2023-03-01T19:12:09;11.60;;;4.78;;
31095;SDS011;17749;51.962;8.560;2023-03-01T19:14:41;9.15;;;5.05;;
31095;SDS011;17749;51.962;8.560;2023-03-01T19:17:08;7.85;;;4.30;;
31095;SDS011;17749;51.962;8.560;2023-03-01T19:19:35;10.77;;;5.30;;
31095;SDS011;17749;51.962;8.560;2023-03-01T19:22:04;8.27;;;5.18;;
31095;SDS011;17749;51.962;8.560;2023-03-01T19:24:34;9.50;;;4.80;;
31095;SDS011;17749;51.962;8.560;2023-03-01T19:27:01;7.43;;;4.40;;
31095;SDS011;17749;51.962;8.560;2023-03-01T19:29:28;8.13;;;4.95;;
31095;SDS011;17749;51.962;8.560;2023-03-01T19:31:55;9.63;;;4.25;;
31095;SDS011;17749;51.962;8.560;2023-03-01T19:34:22;10.07;;;5.10;;
31095;SDS011;17749;51.962;8.560;2023-03-01T19:36:50;8.82;;;5.13;;
31095;SDS011;17749;51.962;8.560;2023-03-01T19:39:18;11.07;;;5.80;;
31095;SDS011;17749;51.962;8.560;2023-03-01T19:41:45;9.85;;;5.03;;
31095;SDS011;17749;51.962;8.560;2023-03-01T19:44:18;10.45;;;5.95;;
31095;SDS011;17749;51.962;8.560;2023-03-01T19:46:51;9.73;;;5.55;;
31095;SDS011;17749;51.962;8.560;2023-03-01T19:49:19;11.57;;;7.07;;
31095;SDS011;17749;51.962;8.560;2023-03-01T19:51:46;9.13;;;5.30;;
31095;SDS011;17749;51.962;8.560;2023-03-01T19:54:13;10.48;;;5.15;;
31095;SDS011;17749;51.962;8.560;2023-03-01T19:56:45;9.38;;;5.38;;
31095;SDS011;17749;51.962;8.560;2023-03-01T19:59:13;15.05;;;8.38;;
31095;SDS011;17749;51.962;8.560;2023-03-01T20:01:41;10.73;;;6.22;;
31095;SDS011;17749;51.962;8.560;2023-03-01T20:04:12;14.60;;;8.68;;
31095;SDS011;17749;51.962;8.560;2023-03-01T20:06:43;11.63;;;6.32;;
31095;SDS011;17749;51.962;8.560;2023-03-01T20:09:16;12.40;;;6.57;;
31095;SDS011;17749;51.962;8.560;2023-03-01T20:11:48;11.15;;;6.20;;
31095;SDS011;17749;51.962;8.560;2023-03-01T20:14:17;9.80;;;5.72;;
31095;SDS011;17749;51.962;8.560;2023-03-01T20:16:49;8.75;;;5.13;;
31095;SDS011;17749;51.962;8.560;2023-03-01T20:19:20;10.02;;;4.57;;
31095;SDS011;17749;51.962;8.560;2023-03-01T20:21:47;13.13;;;4.68;;
31095;SDS011;17749;51.962;8.560;2023-03-01T20:24:15;8.88;;;5.20;;
31095;SDS011;17749;51.962;8.560;2023-03-01T20:26:42;9.45;;;5.32;;
31095;SDS011;17749;51.962;8.560;2023-03-01T20:29:09;11.25;;;5.78;;
31095;SDS011;17749;51.962;8.560;2023-03-01T20:31:37;10.00;;;5.40;;
31095;SDS011;17749;51.962;8.560;2023-03-01T20:34:18;9.30;;;5.07;;
31095;SDS011;17749;51.962;8.560;2023-03-01T20:36:46;10.48;;;5.15;;
31095;SDS011;17749;51.962;8.560;2023-03-01T20:39:16;10.50;;;5.15;;
31095;SDS011;17749;51.962;8.560;2023-03-01T20:41:44;10.05;;;5.63;;
31095;SDS011;17749;51.962;8.560;2023-03-01T20:44:12;13.00;;;6.13;;
31095;SDS011;17749;51.962;8.560;2023-03-01T20:46:39;9.65;;;5.15;;
31095;SDS011;17749;51.962;8.560;2023-03-01T20:49:06;12.38;;;5.65;;
31095;SDS011;17749;51.962;8.560;2023-03-01T20:51:33;8.35;;;4.57;;
31095;SDS011;17749;51.962;8.560;2023-03-01T20:54:01;10.23;;;5.28;;
31095;SDS011;17749;51.962;8.560;2023-03-01T20:56:28;11.55;;;5.47;;
31095;SDS011;17749;51.962;8.560;2023-03-01T20:59:20;11.55;;;5.63;;
31095;SDS011;17749;51.962;8.560;2023-03-01T21:01:49;8.07;;;4.57;;
31095;SDS011;17749;51.962;8.560;2023-03-01T21:04:16;11.45;;;5.47;;
31095;SDS011;17749;51.962;8.560;2023-03-01T21:06:44;8.77;;;5.43;;
31095;SDS011;17749;51.962;8.560;2023-03-01T21:09:11;10.30;;;4.70;;
31095;SDS011;17749;51.962;8.560;2023-03-01T21:11:38;10.35;;;5.50;;
31095;SDS011;17749;51.962;8.560;2023-03-01T21:14:05;11.43;;;5.25;;
31095;SDS011;17749;51.962;8.560;2023-03-01T21:16:32;10.65;;;5.72;;
31095;SDS011;17749;51.962;8.560;2023-03-01T21:19:01;10.50;;;5.55;;
31095;SDS011;17749;51.962;8.560;2023-03-01T21:21:30;13.05;;;5.53;;
31095;SDS011;17749;51.962;8.560;2023-03-01T21:23:57;9.85;;;5.50;;
31095;SDS011;17749;51.962;8.560;2023-03-01T21:26:24;12.30;;;5.22;;
31095;SDS011;17749;51.962;8.560;2023-03-01T21:28:57;10.15;;;5.25;;
